createdAt,value
2023-03-23T15:58:55.812Z,7.40
2023-03-23T16:02:27.120Z,5.70
2023-03-23T16:05:55.570Z,4.70
2023-03-23T16:09:23.264Z,7.50
2023-03-23T16:12:50.659Z,6.10
2023-03-23T16:16:20.107Z,7.00
2023-03-23T16:19:47.005Z,6.40
2023-03-23T16:23:13.716Z,6.60
2023-03-23T16:26:42.178Z,10.60
2023-03-23T16:30:19.137Z,5.10
2023-03-23T16:33:49.228Z,6.00
2023-03-23T16:37:17.163Z,5.70
2023-03-23T16:40:48.645Z,4.20
2023-03-23T16:44:15.143Z,5.20
2023-03-23T16:47:42.660Z,6.20
2023-03-23T16:51:10.070Z,9.80
2023-03-23T16:54:36.703Z,7.00
2023-03-23T16:58:16.335Z,8.30
2023-03-23T17:01:44.279Z,8.10
2023-03-23T17:05:13.821Z,8.70
2023-03-23T17:08:40.812Z,8.60
2023-03-23T17:12:08.896Z,8.90
2023-03-23T17:15:54.245Z,10.10
2023-03-23T17:19:21.523Z,13.60
2023-03-23T17:22:49.615Z,14.60
2023-03-23T17:26:16.450Z,12.60
2023-03-23T17:29:43.338Z,13.60
2023-03-23T17:33:11.276Z,12.50
2023-03-23T17:36:38.425Z,15.50
2023-03-23T17:40:08.633Z,18.40
2023-03-23T17:43:36.578Z,17.90
2023-03-23T17:47:04.731Z,20.20
2023-03-23T17:50:32.030Z,19.60
2023-03-23T17:53:59.337Z,20.30
2023-03-23T17:57:26.349Z,18.40
2023-03-23T18:00:53.284Z,20.00
2023-03-23T18:04:19.884Z,16.20
2023-03-23T18:07:47.443Z,15.80
2023-03-23T18:11:14.167Z,16.90
2023-03-23T18:14:40.887Z,15.60
2023-03-23T18:18:08.764Z,24.40
2023-03-23T18:21:35.473Z,16.80
2023-03-23T18:25:02.972Z,15.30
2023-03-23T18:28:29.585Z,12.70
2023-03-23T18:31:56.423Z,15.70
2023-03-23T18:35:24.030Z,14.70
2023-03-23T18:38:51.605Z,12.30
2023-03-23T18:42:18.685Z,14.30
2023-03-23T18:45:49.754Z,13.10
2023-03-23T18:49:16.778Z,11.70
2023-03-23T18:52:43.604Z,12.50
2023-03-23T18:56:13.838Z,11.90
2023-03-23T18:59:41.403Z,11.60
2023-03-23T19:03:11.460Z,18.30
2023-03-23T19:06:38.540Z,19.50
2023-03-23T19:10:06.498Z,23.40
2023-03-23T19:13:37.545Z,14.10
2023-03-23T19:17:06.399Z,13.00
2023-03-23T19:21:07.807Z,13.80
2023-03-23T19:24:20.769Z,12.60
2023-03-23T19:28:27.534Z,16.10
2023-03-23T19:31:34.756Z,16.50
2023-03-23T19:35:03.384Z,14.50
2023-03-23T19:38:30.981Z,14.80
2023-03-23T19:41:57.879Z,20.30
2023-03-23T19:45:25.258Z,9.70
2023-03-23T19:48:52.305Z,13.90
2023-03-23T19:52:20.305Z,13.90
2023-03-23T19:55:50.261Z,13.10
2023-03-23T19:59:18.519Z,12.50
2023-03-23T20:02:46.115Z,11.60
2023-03-23T20:06:22.735Z,12.40
2023-03-23T20:09:52.598Z,12.20
2023-03-23T20:13:20.232Z,10.00
2023-03-23T20:16:47.659Z,9.80
2023-03-23T20:20:15.760Z,15.70
2023-03-23T20:23:45.200Z,16.20
2023-03-23T20:27:13.491Z,10.30
2023-03-23T20:30:40.447Z,10.90
2023-03-23T20:34:10.842Z,13.30
2023-03-23T20:37:41.296Z,14.60
2023-03-23T20:41:12.281Z,12.70
2023-03-23T20:44:39.904Z,14.80
2023-03-23T20:48:09.830Z,15.30
2023-03-23T20:51:37.519Z,13.60
2023-03-23T20:55:06.164Z,27.40
2023-03-23T20:58:34.651Z,21.30
2023-03-23T21:02:03.036Z,30.90
2023-03-23T21:05:30.275Z,21.00
2023-03-23T21:08:58.898Z,24.80
2023-03-23T21:12:26.206Z,21.60
2023-03-23T21:15:55.276Z,22.20
2023-03-23T21:19:27.768Z,23.50
2023-03-23T21:22:55.147Z,24.80
2023-03-23T21:26:25.694Z,27.10
2023-03-23T21:30:18.578Z,23.50
2023-03-23T21:33:45.670Z,23.50
2023-03-23T21:37:15.370Z,25.00
2023-03-23T21:40:46.721Z,25.70
2023-03-23T21:44:15.604Z,26.80
2023-03-23T21:47:43.420Z,18.70
2023-03-23T21:51:16.521Z,17.70
2023-03-23T21:54:43.879Z,28.90
2023-03-23T21:58:11.326Z,17.90
2023-03-23T22:01:40.613Z,21.40
2023-03-23T22:05:08.404Z,23.60
2023-03-23T22:08:35.631Z,21.90
2023-03-23T22:12:02.712Z,23.70
2023-03-23T22:15:29.775Z,22.40
2023-03-23T22:18:59.668Z,21.30
2023-03-23T22:22:28.022Z,22.50
2023-03-23T22:25:55.980Z,22.50
2023-03-23T22:29:23.212Z,34.80
2023-03-23T22:32:50.277Z,39.70
2023-03-23T22:36:17.896Z,39.30
2023-03-23T22:39:47.040Z,37.70
2023-03-23T22:43:13.980Z,33.70
2023-03-23T22:46:41.167Z,32.90
2023-03-23T22:50:09.542Z,35.20
2023-03-23T22:53:36.734Z,31.70
2023-03-23T22:57:09.064Z,44.10
2023-03-23T23:00:43.887Z,37.00
2023-03-23T23:04:16.138Z,35.30
2023-03-23T23:07:45.127Z,31.90
2023-03-23T23:11:21.804Z,33.10
2023-03-23T23:14:49.083Z,38.50
2023-03-23T23:18:17.880Z,38.30
2023-03-23T23:21:44.841Z,37.10
2023-03-23T23:25:11.736Z,41.30
2023-03-23T23:28:39.345Z,35.60
2023-03-23T23:32:07.058Z,35.30
2023-03-23T23:35:35.321Z,33.40
2023-03-23T23:39:07.968Z,30.70
2023-03-23T23:42:36.379Z,28.80
2023-03-23T23:46:09.447Z,24.40
2023-03-23T23:49:36.238Z,24.00
2023-03-23T23:53:05.299Z,23.20
2023-03-23T23:56:32.901Z,22.00
